sensor_id;sensor_type;location;lat;lon;timestamp;P1;durP1;ratioP1;P2;durP2;ratioP2
72060;SDS011;59925;52.136;5.420;2023-05-19T00:01:59;5.03;;;1.92;;
72060;SDS011;59925;52.136;5.420;2023-05-19T00:04:26;5.32;;;2.00;;
72060;SDS011;59925;52.136;5.420;2023-05-19T00:06:53;6.38;;;2.53;;
72060;SDS011;59925;52.136;5.420;2023-05-19T00:09:20;8.57;;;2.30;;
72060;SDS011;59925;52.136;5.420;2023-05-19T00:11:47;7.95;;;2.20;;
72060;SDS011;59925;52.136;5.420;2023-05-19T00:14:13;6.70;;;2.20;;
72060;SDS011;59925;52.136;5.420;2023-05-19T00:16:40;4.65;;;1.92;;
72060;SDS011;59925;52.136;5.420;2023-05-19T00:19:07;7.70;;;2.10;;
72060;SDS011;59925;52.136;5.420;2023-05-19T00:21:37;6.47;;;2.30;;
72060;SDS011;59925;52.136;5.420;2023-05-19T00:24:04;5.25;;;2.05;;
72060;SDS011;59925;52.136;5.420;2023-05-19T00:26:31;8.55;;;2.20;;
72060;SDS011;59925;52.136;5.420;2023-05-19T00:28:58;7.75;;;2.22;;
72060;SDS011;59925;52.136;5.420;2023-05-19T00:31:24;5.43;;;2.30;;
72060;SDS011;59925;52.136;5.420;2023-05-19T00:33:51;6.30;;;2.30;;
72060;SDS011;59925;52.136;5.420;2023-05-19T00:36:18;8.00;;;2.08;;
72060;SDS011;59925;52.136;5.420;2023-05-19T00:38:45;5.97;;;2.08;;
72060;SDS011;59925;52.136;5.420;2023-05-19T00:41:12;3.97;;;2.25;;
72060;SDS011;59925;52.136;5.420;2023-05-19T00:43:38;8.70;;;2.58;;
72060;SDS011;59925;52.136;5.420;2023-05-19T00:46:05;4.83;;;2.10;;
72060;SDS011;59925;52.136;5.420;2023-05-19T00:48:32;10.32;;;2.95;;
72060;SDS011;59925;52.136;5.420;2023-05-19T00:50:59;4.55;;;2.17;;
72060;SDS011;59925;52.136;5.420;2023-05-19T00:53:31;6.43;;;2.13;;
72060;SDS011;59925;52.136;5.420;2023-05-19T00:55:59;4.50;;;1.88;;
72060;SDS011;59925;52.136;5.420;2023-05-19T00:58:27;7.53;;;2.20;;
72060;SDS011;59925;52.136;5.420;2023-05-19T01:00:56;6.53;;;2.42;;
72060;SDS011;59925;52.136;5.420;2023-05-19T01:03:30;7.15;;;2.17;;
72060;SDS011;59925;52.136;5.420;2023-05-19T01:05:57;5.30;;;2.00;;
72060;SDS011;59925;52.136;5.420;2023-05-19T01:08:27;8.98;;;2.38;;
72060;SDS011;59925;52.136;5.420;2023-05-19T01:10:54;3.40;;;1.83;;
72060;SDS011;59925;52.136;5.420;2023-05-19T01:13:21;5.47;;;2.17;;
72060;SDS011;59925;52.136;5.420;2023-05-19T01:16:35;4.68;;;2.13;;
72060;SDS011;59925;52.136;5.420;2023-05-19T01:32:24;6.88;;;2.60;;
72060;SDS011;59925;52.136;5.420;2023-05-19T01:34:50;5.82;;;2.50;;
72060;SDS011;59925;52.136;5.420;2023-05-19T01:37:19;7.87;;;2.60;;
72060;SDS011;59925;52.136;5.420;2023-05-19T01:39:46;9.07;;;2.17;;
72060;SDS011;59925;52.136;5.420;2023-05-19T01:42:13;7.50;;;2.45;;
72060;SDS011;59925;52.136;5.420;2023-05-19T01:44:40;6.32;;;2.33;;
72060;SDS011;59925;52.136;5.420;2023-05-19T01:47:07;7.28;;;2.55;;
72060;SDS011;59925;52.136;5.420;2023-05-19T01:49:35;10.27;;;2.90;;
72060;SDS011;59925;52.136;5.420;2023-05-19T01:52:02;5.20;;;2.45;;
72060;SDS011;59925;52.136;5.420;2023-05-19T01:54:29;6.05;;;2.45;;
72060;SDS011;59925;52.136;5.420;2023-05-19T02:02:42;6.70;;;2.83;;
72060;SDS011;59925;52.136;5.420;2023-05-19T02:05:34;5.85;;;2.40;;
72060;SDS011;59925;52.136;5.420;2023-05-19T02:08:23;6.55;;;2.20;;
72060;SDS011;59925;52.136;5.420;2023-05-19T02:10:52;6.88;;;2.40;;
72060;SDS011;59925;52.136;5.420;2023-05-19T02:13:23;6.38;;;2.53;;
72060;SDS011;59925;52.136;5.420;2023-05-19T02:15:57;5.80;;;2.47;;
72060;SDS011;59925;52.136;5.420;2023-05-19T02:18:31;8.13;;;2.28;;
72060;SDS011;59925;52.136;5.420;2023-05-19T02:20:58;8.10;;;2.80;;
72060;SDS011;59925;52.136;5.420;2023-05-19T02:23:24;6.20;;;2.25;;
72060;SDS011;59925;52.136;5.420;2023-05-19T02:25:51;7.32;;;2.30;;
72060;SDS011;59925;52.136;5.420;2023-05-19T02:28:18;6.23;;;2.90;;
72060;SDS011;59925;52.136;5.420;2023-05-19T02:30:45;6.95;;;2.55;;
72060;SDS011;59925;52.136;5.420;2023-05-19T02:33:11;5.43;;;2.22;;
72060;SDS011;59925;52.136;5.420;2023-05-19T02:35:37;4.53;;;2.03;;
72060;SDS011;59925;52.136;5.420;2023-05-19T02:38:04;6.80;;;2.58;;
72060;SDS011;59925;52.136;5.420;2023-05-19T02:40:32;5.73;;;2.47;;
72060;SDS011;59925;52.136;5.420;2023-05-19T02:42:59;5.68;;;2.53;;
72060;SDS011;59925;52.136;5.420;2023-05-19T02:45:25;6.95;;;2.60;;
72060;SDS011;59925;52.136;5.420;2023-05-19T02:47:53;6.60;;;2.92;;
72060;SDS011;59925;52.136;5.420;2023-05-19T02:50:20;11.70;;;3.15;;
72060;SDS011;59925;52.136;5.420;2023-05-19T02:52:47;6.53;;;2.40;;
72060;SDS011;59925;52.136;5.420;2023-05-19T02:55:14;7.97;;;2.72;;
72060;SDS011;59925;52.136;5.420;2023-05-19T02:57:42;6.20;;;2.42;;
72060;SDS011;59925;52.136;5.420;2023-05-19T03:00:09;7.82;;;2.80;;
72060;SDS011;59925;52.136;5.420;2023-05-19T03:02:36;8.50;;;2.40;;
72060;SDS011;59925;52.136;5.420;2023-05-19T03:05:02;6.20;;;2.60;;
72060;SDS011;59925;52.136;5.420;2023-05-19T03:07:29;5.95;;;2.50;;
72060;SDS011;59925;52.136;5.420;2023-05-19T03:09:56;9.18;;;2.92;;
72060;SDS011;59925;52.136;5.420;2023-05-19T03:12:22;7.57;;;2.90;;
72060;SDS011;59925;52.136;5.420;2023-05-19T03:14:49;6.28;;;2.53;;
72060;SDS011;59925;52.136;5.420;2023-05-19T03:17:16;6.43;;;2.70;;
72060;SDS011;59925;52.136;5.420;2023-05-19T03:19:42;8.05;;;3.05;;
72060;SDS011;59925;52.136;5.420;2023-05-19T03:22:09;8.52;;;2.92;;
72060;SDS011;59925;52.136;5.420;2023-05-19T03:24:35;10.15;;;2.47;;
72060;SDS011;59925;52.136;5.420;2023-05-19T03:27:03;4.88;;;2.33;;
72060;SDS011;59925;52.136;5.420;2023-05-19T03:29:30;6.47;;;2.40;;
72060;SDS011;59925;52.136;5.420;2023-05-19T03:31:57;6.13;;;2.78;;
72060;SDS011;59925;52.136;5.420;2023-05-19T03:34:25;7.68;;;3.58;;
72060;SDS011;59925;52.136;5.420;2023-05-19T03:36:51;6.63;;;2.30;;
72060;SDS011;59925;52.136;5.420;2023-05-19T03:39:17;8.45;;;2.47;;
72060;SDS011;59925;52.136;5.420;2023-05-19T03:41:44;8.63;;;2.90;;
72060;SDS011;59925;52.136;5.420;2023-05-19T03:44:11;4.95;;;2.67;;
72060;SDS011;59925;52.136;5.420;2023-05-19T03:46:37;6.88;;;2.70;;
72060;SDS011;59925;52.136;5.420;2023-05-19T03:49:04;6.40;;;3.20;;
72060;SDS011;59925;52.136;5.420;2023-05-19T03:51:30;6.65;;;2.97;;
72060;SDS011;59925;52.136;5.420;2023-05-19T03:53:57;5.50;;;2.33;;
72060;SDS011;59925;52.136;5.420;2023-05-19T03:56:23;9.30;;;2.65;;
72060;SDS011;59925;52.136;5.420;2023-05-19T03:58:52;4.63;;;2.63;;
72060;SDS011;59925;52.136;5.420;2023-05-19T04:01:19;10.18;;;2.83;;
72060;SDS011;59925;52.136;5.420;2023-05-19T04:03:46;4.97;;;2.42;;
72060;SDS011;59925;52.136;5.420;2023-05-19T04:06:12;4.90;;;2.47;;
72060;SDS011;59925;52.136;5.420;2023-05-19T04:08:39;6.68;;;2.58;;
72060;SDS011;59925;52.136;5.420;2023-05-19T04:11:05;6.82;;;2.20;;
72060;SDS011;59925;52.136;5.420;2023-05-19T04:13:32;4.32;;;2.70;;
72060;SDS011;59925;52.136;5.420;2023-05-19T04:15:59;8.07;;;2.70;;
72060;SDS011;59925;52.136;5.420;2023-05-19T04:18:26;6.83;;;2.77;;
72060;SDS011;59925;52.136;5.420;2023-05-19T04:20:54;7.88;;;2.80;;
72060;SDS011;59925;52.136;5.420;2023-05-19T04:23:21;11.10;;;3.42;;
72060;SDS011;59925;52.136;5.420;2023-05-19T04:25:47;8.23;;;3.03;;
72060;SDS011;59925;52.136;5.420;2023-05-19T04:28:14;9.00;;;2.97;;
72060;SDS011;59925;52.136;5.420;2023-05-19T04:30:41;11.10;;;3.20;;
72060;SDS011;59925;52.136;5.420;2023-05-19T04:33:07;7.63;;;3.47;;
72060;SDS011;59925;52.136;5.420;2023-05-19T04:35:37;7.28;;;3.15;;
72060;SDS011;59925;52.136;5.420;2023-05-19T04:38:04;7.53;;;3.38;;
72060;SDS011;59925;52.136;5.420;2023-05-19T04:40:31;7.10;;;3.10;;
72060;SDS011;59925;52.136;5.420;2023-05-19T04:42:58;13.10;;;3.23;;
72060;SDS011;59925;52.136;5.420;2023-05-19T04:45:27;7.35;;;3.42;;
72060;SDS011;59925;52.136;5.420;2023-05-19T04:47:53;7.78;;;3.15;;
72060;SDS011;59925;52.136;5.420;2023-05-19T04:50:23;6.10;;;3.05;;
72060;SDS011;59925;52.136;5.420;2023-05-19T04:52:50;13.13;;;3.90;;
72060;SDS011;59925;52.136;5.420;2023-05-19T04:55:16;7.43;;;3.27;;
72060;SDS011;59925;52.136;5.420;2023-05-19T04:57:43;6.88;;;3.53;;
72060;SDS011;59925;52.136;5.420;2023-05-19T05:00:09;9.00;;;3.63;;
72060;SDS011;59925;52.136;5.420;2023-05-19T05:02:39;8.77;;;3.17;;
72060;SDS011;59925;52.136;5.420;2023-05-19T05:05:08;11.48;;;3.67;;
72060;SDS011;59925;52.136;5.420;2023-05-19T05:07:35;8.67;;;3.23;;
72060;SDS011;59925;52.136;5.420;2023-05-19T05:10:01;6.25;;;3.25;;
72060;SDS011;59925;52.136;5.420;2023-05-19T05:12:29;6.18;;;3.65;;
72060;SDS011;59925;52.136;5.420;2023-05-19T05:14:56;8.13;;;3.47;;
72060;SDS011;59925;52.136;5.420;2023-05-19T05:17:23;8.82;;;3.90;;
72060;SDS011;59925;52.136;5.420;2023-05-19T05:19:51;13.67;;;3.57;;
72060;SDS011;59925;52.136;5.420;2023-05-19T05:22:18;9.05;;;4.10;;
72060;SDS011;59925;52.136;5.420;2023-05-19T05:24:44;12.50;;;4.30;;
72060;SDS011;59925;52.136;5.420;2023-05-19T05:27:11;7.43;;;3.70;;
72060;SDS011;59925;52.136;5.420;2023-05-19T05:29:38;9.45;;;3.58;;
72060;SDS011;59925;52.136;5.420;2023-05-19T05:32:05;9.07;;;4.20;;
72060;SDS011;59925;52.136;5.420;2023-05-19T05:34:33;10.45;;;4.20;;
72060;SDS011;59925;52.136;5.420;2023-05-19T05:37:00;10.80;;;4.22;;
72060;SDS011;59925;52.136;5.420;2023-05-19T05:39:27;9.50;;;3.60;;
72060;SDS011;59925;52.136;5.420;2023-05-19T05:41:53;13.18;;;3.83;;
72060;SDS011;59925;52.136;5.420;2023-05-19T05:44:20;7.67;;;3.80;;
72060;SDS011;59925;52.136;5.420;2023-05-19T05:46:47;7.80;;;4.10;;
72060;SDS011;59925;52.136;5.420;2023-05-19T05:49:13;8.30;;;4.05;;
72060;SDS011;59925;52.136;5.420;2023-05-19T05:51:40;13.10;;;4.07;;
72060;SDS011;59925;52.136;5.420;2023-05-19T05:54:16;9.77;;;4.50;;
72060;SDS011;59925;52.136;5.420;2023-05-19T05:56:46;7.07;;;3.67;;
72060;SDS011;59925;52.136;5.420;2023-05-19T05:59:14;8.13;;;4.05;;
72060;SDS011;59925;52.136;5.420;2023-05-19T06:01:40;7.28;;;4.15;;
72060;SDS011;59925;52.136;5.420;2023-05-19T06:04:09;9.02;;;3.92;;
72060;SDS011;59925;52.136;5.420;2023-05-19T06:06:36;9.13;;;4.07;;
72060;SDS011;59925;52.136;5.420;2023-05-19T06:09:03;5.87;;;3.80;;
72060;SDS011;59925;52.136;5.420;2023-05-19T06:11:29;6.82;;;3.70;;
72060;SDS011;59925;52.136;5.420;2023-05-19T06:13:58;10.98;;;3.80;;
72060;SDS011;59925;52.136;5.420;2023-05-19T06:16:25;7.22;;;3.88;;
72060;SDS011;59925;52.136;5.420;2023-05-19T06:18:52;6.85;;;4.43;;
72060;SDS011;59925;52.136;5.420;2023-05-19T06:21:18;7.30;;;4.03;;
72060;SDS011;59925;52.136;5.420;2023-05-19T06:23:45;8.30;;;4.32;;
72060;SDS011;59925;52.136;5.420;2023-05-19T06:26:12;9.80;;;3.75;;
72060;SDS011;59925;52.136;5.420;2023-05-19T06:28:38;6.15;;;3.88;;
72060;SDS011;59925;52.136;5.420;2023-05-19T06:31:05;8.25;;;3.63;;
72060;SDS011;59925;52.136;5.420;2023-05-19T06:33:31;7.27;;;3.97;;
72060;SDS011;59925;52.136;5.420;2023-05-19T06:35:58;7.68;;;4.20;;
72060;SDS011;59925;52.136;5.420;2023-05-19T06:38:24;6.88;;;4.03;;
72060;SDS011;59925;52.136;5.420;2023-05-19T06:40:51;8.18;;;4.35;;
72060;SDS011;59925;52.136;5.420;2023-05-19T06:43:17;7.68;;;4.13;;
72060;SDS011;59925;52.136;5.420;2023-05-19T06:45:44;7.60;;;4.60;;
72060;SDS011;59925;52.136;5.420;2023-05-19T06:48:10;9.40;;;4.70;;
72060;SDS011;59925;52.136;5.420;2023-05-19T06:50:37;8.88;;;4.43;;
72060;SDS011;59925;52.136;5.420;2023-05-19T06:53:03;9.10;;;4.30;;
72060;SDS011;59925;52.136;5.420;2023-05-19T06:55:31;8.85;;;4.15;;
72060;SDS011;59925;52.136;5.420;2023-05-19T06:58:00;8.27;;;4.23;;
72060;SDS011;59925;52.136;5.420;2023-05-19T07:00:27;8.38;;;5.40;;
72060;SDS011;59925;52.136;5.420;2023-05-19T07:02:53;9.35;;;4.00;;
72060;SDS011;59925;52.136;5.420;2023-05-19T07:05:20;7.75;;;4.13;;
72060;SDS011;59925;52.136;5.420;2023-05-19T07:07:47;8.40;;;4.22;;
72060;SDS011;59925;52.136;5.420;2023-05-19T07:10:13;7.33;;;4.10;;
72060;SDS011;59925;52.136;5.420;2023-05-19T07:12:40;7.78;;;3.80;;
72060;SDS011;59925;52.136;5.420;2023-05-19T07:15:07;7.55;;;3.50;;
72060;SDS011;59925;52.136;5.420;2023-05-19T07:17:33;7.97;;;3.92;;
72060;SDS011;59925;52.136;5.420;2023-05-19T07:20:00;9.88;;;4.50;;
72060;SDS011;59925;52.136;5.420;2023-05-19T07:22:26;9.60;;;3.70;;
72060;SDS011;59925;52.136;5.420;2023-05-19T07:24:53;8.63;;;3.72;;
72060;SDS011;59925;52.136;5.420;2023-05-19T07:27:22;7.68;;;3.70;;
72060;SDS011;59925;52.136;5.420;2023-05-19T07:29:48;8.60;;;3.40;;
72060;SDS011;59925;52.136;5.420;2023-05-19T07:32:15;7.90;;;3.08;;
72060;SDS011;59925;52.136;5.420;2023-05-19T07:34:41;7.57;;;3.00;;
72060;SDS011;59925;52.136;5.420;2023-05-19T07:37:08;6.18;;;3.10;;
72060;SDS011;59925;52.136;5.420;2023-05-19T07:39:34;6.80;;;2.70;;
72060;SDS011;59925;52.136;5.420;2023-05-19T07:42:01;7.88;;;3.30;;
72060;SDS011;59925;52.136;5.420;2023-05-19T07:44:28;6.35;;;3.20;;
72060;SDS011;59925;52.136;5.420;2023-05-19T07:46:56;6.30;;;2.73;;
72060;SDS011;59925;52.136;5.420;2023-05-19T07:49:23;6.72;;;2.58;;
72060;SDS011;59925;52.136;5.420;2023-05-19T07:51:49;8.25;;;2.78;;
72060;SDS011;59925;52.136;5.420;2023-05-19T07:54:16;8.20;;;2.60;;
72060;SDS011;59925;52.136;5.420;2023-05-19T07:56:42;5.32;;;2.58;;
72060;SDS011;59925;52.136;5.420;2023-05-19T07:59:09;5.80;;;2.00;;
72060;SDS011;59925;52.136;5.420;2023-05-19T08:01:35;7.10;;;2.33;;
72060;SDS011;59925;52.136;5.420;2023-05-19T08:04:02;8.43;;;2.53;;
72060;SDS011;59925;52.136;5.420;2023-05-19T08:06:30;8.02;;;2.58;;
72060;SDS011;59925;52.136;5.420;2023-05-19T08:08:57;7.80;;;2.38;;
72060;SDS011;59925;52.136;5.420;2023-05-19T08:11:23;5.17;;;1.90;;
72060;SDS011;59925;52.136;5.420;2023-05-19T08:13:50;5.75;;;1.83;;
72060;SDS011;59925;52.136;5.420;2023-05-19T08:16:16;7.30;;;1.88;;
72060;SDS011;59925;52.136;5.420;2023-05-19T08:18:43;2.55;;;1.45;;
72060;SDS011;59925;52.136;5.420;2023-05-19T08:21:10;5.88;;;1.95;;
72060;SDS011;59925;52.136;5.420;2023-05-19T08:23:36;3.10;;;1.30;;
72060;SDS011;59925;52.136;5.420;2023-05-19T08:26:03;3.85;;;1.30;;
72060;SDS011;59925;52.136;5.420;2023-05-19T08:28:30;4.13;;;1.50;;
72060;SDS011;59925;52.136;5.420;2023-05-19T08:30:57;4.50;;;1.42;;
72060;SDS011;59925;52.136;5.420;2023-05-19T08:33:23;4.40;;;1.20;;
72060;SDS011;59925;52.136;5.420;2023-05-19T08:35:50;6.73;;;1.43;;
72060;SDS011;59925;52.136;5.420;2023-05-19T08:38:16;5.35;;;1.27;;
72060;SDS011;59925;52.136;5.420;2023-05-19T08:40:44;4.43;;;1.23;;
72060;SDS011;59925;52.136;5.420;2023-05-19T08:43:12;4.80;;;1.27;;
72060;SDS011;59925;52.136;5.420;2023-05-19T08:45:42;5.05;;;1.05;;
72060;SDS011;59925;52.136;5.420;2023-05-19T08:48:13;3.40;;;0.90;;
72060;SDS011;59925;52.136;5.420;2023-05-19T08:50:44;4.03;;;1.40;;
72060;SDS011;59925;52.136;5.420;2023-05-19T08:53:22;4.63;;;1.08;;
72060;SDS011;59925;52.136;5.420;2023-05-19T08:58:37;5.93;;;1.58;;
72060;SDS011;59925;52.136;5.420;2023-05-19T09:01:06;5.10;;;1.23;;
72060;SDS011;59925;52.136;5.420;2023-05-19T09:03:33;4.00;;;1.10;;
72060;SDS011;59925;52.136;5.420;2023-05-19T09:06:06;3.90;;;0.93;;
72060;SDS011;59925;52.136;5.420;2023-05-19T09:08:34;6.53;;;1.13;;
72060;SDS011;59925;52.136;5.420;2023-05-19T09:11:01;3.30;;;0.90;;
72060;SDS011;59925;52.136;5.420;2023-05-19T09:13:28;6.37;;;1.53;;
72060;SDS011;59925;52.136;5.420;2023-05-19T09:15:55;5.00;;;1.15;;
72060;SDS011;59925;52.136;5.420;2023-05-19T09:18:23;5.22;;;1.50;;
72060;SDS011;59925;52.136;5.420;2023-05-19T09:20:57;5.30;;;1.60;;
72060;SDS011;59925;52.136;5.420;2023-05-19T09:23:31;7.13;;;1.33;;
72060;SDS011;59925;52.136;5.420;2023-05-19T09:26:01;3.67;;;1.90;;
72060;SDS011;59925;52.136;5.420;2023-05-19T09:28:30;5.65;;;1.63;;
72060;SDS011;59925;52.136;5.420;2023-05-19T09:31:02;6.72;;;1.30;;
72060;SDS011;59925;52.136;5.420;2023-05-19T09:33:31;9.68;;;1.60;;
72060;SDS011;59925;52.136;5.420;2023-05-19T09:35:59;6.68;;;1.50;;
72060;SDS011;59925;52.136;5.420;2023-05-19T09:38:26;4.00;;;1.47;;
72060;SDS011;59925;52.136;5.420;2023-05-19T09:40:56;5.22;;;1.08;;
72060;SDS011;59925;52.136;5.420;2023-05-19T09:43:27;4.43;;;1.45;;
72060;SDS011;59925;52.136;5.420;2023-05-19T09:45:58;5.22;;;1.75;;
72060;SDS011;59925;52.136;5.420;2023-05-19T09:48:26;3.45;;;1.50;;
72060;SDS011;59925;52.136;5.420;2023-05-19T09:50:53;5.67;;;1.60;;
72060;SDS011;59925;52.136;5.420;2023-05-19T09:53:20;5.03;;;1.40;;
72060;SDS011;59925;52.136;5.420;2023-05-19T09:55:47;6.15;;;1.40;;
72060;SDS011;59925;52.136;5.420;2023-05-19T09:58:15;4.10;;;1.40;;
72060;SDS011;59925;52.136;5.420;2023-05-19T10:00:45;5.05;;;1.40;;
72060;SDS011;59925;52.136;5.420;2023-05-19T10:03:12;4.07;;;1.40;;
72060;SDS011;59925;52.136;5.420;2023-05-19T10:05:41;3.95;;;1.30;;
72060;SDS011;59925;52.136;5.420;2023-05-19T10:08:08;4.68;;;1.10;;
72060;SDS011;59925;52.136;5.420;2023-05-19T10:10:36;3.65;;;1.38;;
72060;SDS011;59925;52.136;5.420;2023-05-19T10:13:04;6.68;;;1.45;;
72060;SDS011;59925;52.136;5.420;2023-05-19T10:15:31;4.40;;;1.60;;
72060;SDS011;59925;52.136;5.420;2023-05-19T10:18:03;4.85;;;1.13;;
72060;SDS011;59925;52.136;5.420;2023-05-19T10:20:32;4.80;;;1.45;;
72060;SDS011;59925;52.136;5.420;2023-05-19T10:23:00;3.42;;;1.42;;
72060;SDS011;59925;52.136;5.420;2023-05-19T10:25:29;4.80;;;1.48;;
72060;SDS011;59925;52.136;5.420;2023-05-19T10:28:02;5.50;;;1.77;;
72060;SDS011;59925;52.136;5.420;2023-05-19T10:30:37;6.68;;;1.55;;
72060;SDS011;59925;52.136;5.420;2023-05-19T10:33:06;3.10;;;1.38;;
72060;SDS011;59925;52.136;5.420;2023-05-19T10:46:42;4.47;;;1.52;;
72060;SDS011;59925;52.136;5.420;2023-05-19T10:49:09;3.55;;;1.65;;
72060;SDS011;59925;52.136;5.420;2023-05-19T10:51:35;4.70;;;1.42;;
72060;SDS011;59925;52.136;5.420;2023-05-19T10:54:03;6.07;;;1.50;;
72060;SDS011;59925;52.136;5.420;2023-05-19T10:56:38;4.07;;;1.60;;
72060;SDS011;59925;52.136;5.420;2023-05-19T10:59:07;3.63;;;1.75;;
72060;SDS011;59925;52.136;5.420;2023-05-19T11:02:03;4.47;;;1.85;;
72060;SDS011;59925;52.136;5.420;2023-05-19T11:04:47;6.82;;;1.92;;
72060;SDS011;59925;52.136;5.420;2023-05-19T11:07:19;9.93;;;3.07;;
72060;SDS011;59925;52.136;5.420;2023-05-19T11:09:52;9.25;;;1.77;;
72060;SDS011;59925;52.136;5.420;2023-05-19T11:12:19;5.00;;;1.95;;
72060;SDS011;59925;52.136;5.420;2023-05-19T11:14:53;4.68;;;1.50;;
72060;SDS011;59925;52.136;5.420;2023-05-19T11:17:20;6.22;;;1.73;;
72060;SDS011;59925;52.136;5.420;2023-05-19T11:19:55;6.50;;;2.40;;
72060;SDS011;59925;52.136;5.420;2023-05-19T11:22:23;6.93;;;1.33;;
72060;SDS011;59925;52.136;5.420;2023-05-19T11:24:53;5.60;;;1.80;;
72060;SDS011;59925;52.136;5.420;2023-05-19T11:27:27;6.68;;;1.73;;
72060;SDS011;59925;52.136;5.420;2023-05-19T11:29:57;2.90;;;1.25;;
72060;SDS011;59925;52.136;5.420;2023-05-19T11:32:28;5.73;;;1.70;;
72060;SDS011;59925;52.136;5.420;2023-05-19T11:34:56;5.00;;;1.60;;
72060;SDS011;59925;52.136;5.420;2023-05-19T11:37:23;3.05;;;1.40;;
72060;SDS011;59925;52.136;5.420;2023-05-19T11:39:50;4.47;;;1.80;;
72060;SDS011;59925;52.136;5.420;2023-05-19T11:42:17;4.72;;;1.40;;
72060;SDS011;59925;52.136;5.420;2023-05-19T11:44:44;4.97;;;1.70;;
72060;SDS011;59925;52.136;5.420;2023-05-19T11:47:11;4.82;;;1.70;;
72060;SDS011;59925;52.136;5.420;2023-05-19T11:49:43;4.90;;;1.13;;
72060;SDS011;59925;52.136;5.420;2023-05-19T11:52:11;3.97;;;1.23;;
72060;SDS011;59925;52.136;5.420;2023-05-19T11:54:37;4.88;;;1.70;;
72060;SDS011;59925;52.136;5.420;2023-05-19T11:57:09;3.27;;;1.10;;
72060;SDS011;59925;52.136;5.420;2023-05-19T11:59:37;5.13;;;1.40;;
72060;SDS011;59925;52.136;5.420;2023-05-19T12:04:39;5.28;;;1.90;;
72060;SDS011;59925;52.136;5.420;2023-05-19T12:07:05;5.45;;;1.42;;
72060;SDS011;59925;52.136;5.420;2023-05-19T12:09:32;4.10;;;1.23;;
72060;SDS011;59925;52.136;5.420;2023-05-19T12:11:59;4.57;;;1.50;;
72060;SDS011;59925;52.136;5.420;2023-05-19T12:14:29;2.75;;;1.15;;
72060;SDS011;59925;52.136;5.420;2023-05-19T12:17:08;5.20;;;1.77;;
72060;SDS011;59925;52.136;5.420;2023-05-19T12:19:35;3.25;;;1.20;;
72060;SDS011;59925;52.136;5.420;2023-05-19T12:22:02;2.40;;;1.00;;
72060;SDS011;59925;52.136;5.420;2023-05-19T12:24:30;4.68;;;1.33;;
72060;SDS011;59925;52.136;5.420;2023-05-19T12:27:06;5.63;;;1.45;;
72060;SDS011;59925;52.136;5.420;2023-05-19T12:29:35;4.47;;;1.40;;
72060;SDS011;59925;52.136;5.420;2023-05-19T12:32:04;4.65;;;2.10;;
72060;SDS011;59925;52.136;5.420;2023-05-19T12:34:36;4.50;;;1.93;;
72060;SDS011;59925;52.136;5.420;2023-05-19T12:37:03;7.03;;;2.40;;
72060;SDS011;59925;52.136;5.420;2023-05-19T12:39:31;5.53;;;2.10;;
72060;SDS011;59925;52.136;5.420;2023-05-19T12:42:02;8.07;;;2.05;;
72060;SDS011;59925;52.136;5.420;2023-05-19T12:44:29;5.63;;;2.22;;
72060;SDS011;59925;52.136;5.420;2023-05-19T12:46:56;5.70;;;2.57;;
72060;SDS011;59925;52.136;5.420;2023-05-19T12:49:24;6.13;;;2.17;;
72060;SDS011;59925;52.136;5.420;2023-05-19T12:51:51;5.32;;;2.58;;
72060;SDS011;59925;52.136;5.420;2023-05-19T12:54:21;7.03;;;2.50;;
72060;SDS011;59925;52.136;5.420;2023-05-19T12:56:52;4.60;;;1.92;;
72060;SDS011;59925;52.136;5.420;2023-05-19T12:59:24;4.90;;;2.03;;
72060;SDS011;59925;52.136;5.420;2023-05-19T13:02:03;4.35;;;2.00;;
72060;SDS011;59925;52.136;5.420;2023-05-19T13:04:30;6.53;;;2.13;;
72060;SDS011;59925;52.136;5.420;2023-05-19T13:06:56;5.72;;;2.28;;
72060;SDS011;59925;52.136;5.420;2023-05-19T13:09:23;4.32;;;1.60;;
72060;SDS011;59925;52.136;5.420;2023-05-19T13:11:49;6.83;;;2.10;;
72060;SDS011;59925;52.136;5.420;2023-05-19T13:14:17;6.68;;;2.20;;
72060;SDS011;59925;52.136;5.420;2023-05-19T13:16:44;5.88;;;1.80;;
72060;SDS011;59925;52.136;5.420;2023-05-19T13:19:13;5.80;;;2.08;;
72060;SDS011;59925;52.136;5.420;2023-05-19T13:21:51;5.70;;;1.77;;
72060;SDS011;59925;52.136;5.420;2023-05-19T13:24:17;5.53;;;1.87;;
72060;SDS011;59925;52.136;5.420;2023-05-19T13:26:44;3.38;;;1.70;;
72060;SDS011;59925;52.136;5.420;2023-05-19T13:29:10;5.68;;;2.22;;
72060;SDS011;59925;52.136;5.420;2023-05-19T13:31:37;4.03;;;1.70;;
72060;SDS011;59925;52.136;5.420;2023-05-19T13:34:04;4.20;;;1.90;;
72060;SDS011;59925;52.136;5.420;2023-05-19T13:36:30;3.53;;;1.77;;
72060;SDS011;59925;52.136;5.420;2023-05-19T13:38:58;6.97;;;1.80;;
72060;SDS011;59925;52.136;5.420;2023-05-19T13:41:26;4.95;;;1.73;;
72060;SDS011;59925;52.136;5.420;2023-05-19T13:43:57;5.22;;;2.10;;
72060;SDS011;59925;52.136;5.420;2023-05-19T13:46:24;5.88;;;2.17;;
72060;SDS011;59925;52.136;5.420;2023-05-19T13:49:08;6.13;;;1.90;;
72060;SDS011;59925;52.136;5.420;2023-05-19T13:51:35;5.95;;;2.58;;
72060;SDS011;59925;52.136;5.420;2023-05-19T13:54:02;5.70;;;2.30;;
72060;SDS011;59925;52.136;5.420;2023-05-19T13:56:30;3.67;;;1.75;;
72060;SDS011;59925;52.136;5.420;2023-05-19T13:58:56;5.93;;;1.50;;
72060;SDS011;59925;52.136;5.420;2023-05-19T14:01:23;3.60;;;1.70;;
72060;SDS011;59925;52.136;5.420;2023-05-19T14:03:50;5.35;;;2.08;;
72060;SDS011;59925;52.136;5.420;2023-05-19T14:06:17;4.50;;;1.80;;
72060;SDS011;59925;52.136;5.420;2023-05-19T14:08:44;4.82;;;1.90;;
72060;SDS011;59925;52.136;5.420;2023-05-19T14:11:17;4.13;;;1.88;;
72060;SDS011;59925;52.136;5.420;2023-05-19T14:13:47;7.00;;;2.23;;
72060;SDS011;59925;52.136;5.420;2023-05-19T14:16:18;5.45;;;2.05;;
72060;SDS011;59925;52.136;5.420;2023-05-19T14:18:47;4.00;;;1.92;;
72060;SDS011;59925;52.136;5.420;2023-05-19T14:21:14;3.72;;;1.67;;
72060;SDS011;59925;52.136;5.420;2023-05-19T14:23:41;5.70;;;2.05;;
72060;SDS011;59925;52.136;5.420;2023-05-19T14:26:07;5.50;;;2.17;;
72060;SDS011;59925;52.136;5.420;2023-05-19T14:28:33;7.05;;;2.15;;
72060;SDS011;59925;52.136;5.420;2023-05-19T14:31:01;3.17;;;1.85;;
72060;SDS011;59925;52.136;5.420;2023-05-19T14:33:28;3.92;;;1.75;;
72060;SDS011;59925;52.136;5.420;2023-05-19T14:36:00;6.82;;;1.58;;
72060;SDS011;59925;52.136;5.420;2023-05-19T14:38:26;7.07;;;1.87;;
72060;SDS011;59925;52.136;5.420;2023-05-19T14:40:54;2.72;;;1.25;;
72060;SDS011;59925;52.136;5.420;2023-05-19T14:43:21;5.45;;;1.50;;
72060;SDS011;59925;52.136;5.420;2023-05-19T14:45:47;4.78;;;1.40;;
72060;SDS011;59925;52.136;5.420;2023-05-19T14:48:14;2.92;;;1.67;;
72060;SDS011;59925;52.136;5.420;2023-05-19T14:50:41;5.07;;;1.60;;
72060;SDS011;59925;52.136;5.420;2023-05-19T14:53:08;4.05;;;1.60;;
72060;SDS011;59925;52.136;5.420;2023-05-19T14:55:34;4.93;;;1.73;;
72060;SDS011;59925;52.136;5.420;2023-05-19T14:58:01;3.60;;;1.80;;
72060;SDS011;59925;52.136;5.420;2023-05-19T15:00:33;5.47;;;1.40;;
72060;SDS011;59925;52.136;5.420;2023-05-19T15:03:00;4.47;;;1.60;;
72060;SDS011;59925;52.136;5.420;2023-05-19T15:05:26;3.17;;;1.50;;
72060;SDS011;59925;52.136;5.420;2023-05-19T15:07:53;4.53;;;1.88;;
72060;SDS011;59925;52.136;5.420;2023-05-19T15:10:19;5.10;;;1.77;;
72060;SDS011;59925;52.136;5.420;2023-05-19T15:12:46;3.78;;;1.52;;
72060;SDS011;59925;52.136;5.420;2023-05-19T15:15:13;5.17;;;2.00;;
72060;SDS011;59925;52.136;5.420;2023-05-19T15:17:42;6.15;;;1.35;;
72060;SDS011;59925;52.136;5.420;2023-05-19T15:20:12;4.65;;;1.50;;
72060;SDS011;59925;52.136;5.420;2023-05-19T15:22:39;3.80;;;1.52;;
72060;SDS011;59925;52.136;5.420;2023-05-19T15:25:05;5.00;;;1.30;;
72060;SDS011;59925;52.136;5.420;2023-05-19T15:27:33;2.73;;;1.20;;
72060;SDS011;59925;52.136;5.420;2023-05-19T15:30:02;4.30;;;1.42;;